Time;durP1;ratioP1;P1;durP2;ratioP2;P2;SDS_P1;SDS_P2;PMS_P1;PMS_P2;Temp;Humidity;BMP_temperature;BMP_pressure;BME280_temperature;BME280_humidity;BME280_pressure;Samples;Min_cycle;Max_cycle;Signal;HPM_P1;HPM_P2
2023/12/25 00:02:21;;;;;;;;;;;;;;;;;;10512712;28;20439;-74
2023/12/25 00:07:24;;;;;;;0.30;0.30;;;;;;;;;;10500746;28;19926;-72
2023/12/25 00:12:28;;;;;;;0.20;0.20;;;;;;;;;;10510671;28;20044;-75
2023/12/25 00:17:31;;;;;;;;;;;;;;;;;;10511606;28;20108;-75
2023/12/25 00:22:34;;;;;;;0.15;0.15;;;;;;;;;;10510373;28;20007;-74
2023/12/25 00:27:40;;;;;;;0.90;0.20;;;;;;;;;;10519673;28;20048;-74
2023/12/25 00:32:43;;;;;;;0.20;0.20;;;;;;;;;;10521688;28;20063;-75
2023/12/25 00:37:46;;;;;;;0.23;0.20;;;;;;;;;;10510908;28;20047;-75
2023/12/25 00:42:50;;;;;;;0.20;0.13;;;;;;;;;;10516350;28;20138;-74
2023/12/25 00:47:53;;;;;;;0.40;0.28;;;;;;;;;;10519117;28;20066;-75
2023/12/25 00:52:56;;;;;;;0.25;0.20;;;;;;;;;;10511347;28;20040;-75
2023/12/25 00:58:01;;;;;;;0.15;0.10;;;;;;;;;;10519302;28;20036;-76
2023/12/25 01:03:05;;;;;;;0.10;0.10;;;;;;;;;;10513653;28;20097;-74
2023/12/25 01:08:08;;;;;;;0.20;0.20;;;;;;;;;;10522497;28;20588;-74
2023/12/25 01:13:12;;;;;;;0.10;0.10;;;;;;;;;;10518140;28;20051;-74
2023/12/25 01:18:14;;;;;;;;;;;;;;;;;;10509502;28;20101;-74
2023/12/25 01:23:17;;;;;;;1.27;0.50;;;;;;;;;;10511835;28;19927;-74
2023/12/25 01:28:21;;;;;;;2.28;1.05;;;;;;;;;;10510909;28;20032;-75
2023/12/25 01:33:24;;;;;;;;;;;;;;;;;;10509672;28;20045;-74
2023/12/25 01:38:27;;;;;;;0.28;0.28;;;;;;;;;;10509445;28;19925;-73
2023/12/25 01:43:31;;;;;;;0.47;0.40;;;;;;;;;;10510997;28;20455;-74
2023/12/25 01:48:33;;;;;;;0.20;0.20;;;;;;;;;;10514764;28;20047;-74
2023/12/25 01:53:36;;;;;;;0.40;0.30;;;;;;;;;;10508844;28;20048;-75
2023/12/25 01:58:40;;;;;;;1.88;0.20;;;;;;;;;;10514763;28;20048;-74
2023/12/25 02:03:44;;;;;;;;;;;;;;;;;;10525886;28;20110;-75
2023/12/25 02:08:46;;;;;;;0.47;0.20;;;;;;;;;;10524075;28;19920;-74
2023/12/25 02:13:55;;;;;;;0.40;0.40;;;;;;;;;;10523337;28;20048;-73
2023/12/25 02:18:58;;;;;;;0.63;0.30;;;;;;;;;;10517933;28;20047;-74
2023/12/25 02:24:04;;;;;;;0.30;0.30;;;;;;;;;;10516328;28;20052;-75
2023/12/25 02:29:08;;;;;;;0.85;0.30;;;;;;;;;;10515567;28;20127;-74
2023/12/25 02:34:11;;;;;;;;;;;;;;;;;;10505560;28;20544;-74
2023/12/25 02:39:16;;;;;;;0.20;0.20;;;;;;;;;;10507755;28;19929;-74
2023/12/25 02:44:20;;;;;;;0.30;0.20;;;;;;;;;;10509047;28;20449;-74
2023/12/25 02:49:22;;;;;;;0.63;0.20;;;;;;;;;;10506931;28;20094;-74
2023/12/25 02:54:25;;;;;;;0.38;0.10;;;;;;;;;;10513630;28;20051;-75
2023/12/25 02:59:29;;;;;;;0.20;0.20;;;;;;;;;;10512243;28;20428;-74
2023/12/25 03:04:32;;;;;;;1.92;0.50;;;;;;;;;;10512321;28;20044;-74
2023/12/25 03:09:36;;;;;;;0.85;0.32;;;;;;;;;;10505706;28;20078;-74
2023/12/25 03:14:40;;;;;;;0.32;0.30;;;;;;;;;;10514637;28;20128;-73
2023/12/25 03:19:43;;;;;;;0.30;0.30;;;;;;;;;;10511728;28;20072;-75
2023/12/25 03:24:46;;;;;;;0.60;0.20;;;;;;;;;;10510461;28;20038;-74
2023/12/25 03:29:50;;;;;;;0.38;0.20;;;;;;;;;;10519545;28;20056;-75
2023/12/25 03:34:52;;;;;;;;;;;;;;;;;;10512013;28;20519;-74
2023/12/25 03:39:57;;;;;;;0.60;0.22;;;;;;;;;;10516166;28;19930;-74
2023/12/25 03:45:01;;;;;;;0.55;0.30;;;;;;;;;;10516404;28;20089;-74
2023/12/25 03:50:05;;;;;;;0.40;0.30;;;;;;;;;;10515235;28;20048;-74
2023/12/25 03:55:08;;;;;;;1.17;0.30;;;;;;;;;;10510176;28;20090;-75
2023/12/25 04:00:12;;;;;;;0.35;0.20;;;;;;;;;;10518400;28;20179;-75
2023/12/25 04:05:15;;;;;;;0.40;0.20;;;;;;;;;;10517915;28;20036;-74
2023/12/25 04:10:18;;;;;;;0.20;0.20;;;;;;;;;;10520146;28;20048;-75
2023/12/25 04:15:22;;;;;;;0.30;0.28;;;;;;;;;;10520738;28;20070;-74
2023/12/25 04:20:24;;;;;;;;;;;;;;;;;;10522180;28;20070;-73
2023/12/25 04:25:27;;;;;;;0.30;0.30;;;;;;;;;;10511890;28;20027;-75
2023/12/25 04:30:31;;;;;;;0.63;0.20;;;;;;;;;;10523107;28;20090;-74
2023/12/25 04:35:33;;;;;;;0.30;0.15;;;;;;;;;;10515273;28;20438;-75
2023/12/25 04:40:36;;;;;;;2.72;0.40;;;;;;;;;;10509735;28;20040;-77
2023/12/25 04:45:40;;;;;;;0.15;0.15;;;;;;;;;;10518421;28;20433;-75
2023/12/25 04:50:43;;;;;;;;;;;;;;;;;;10520775;28;20040;-75
2023/12/25 04:55:46;;;;;;;0.30;0.22;;;;;;;;;;10517304;28;20011;-75
2023/12/25 05:00:50;;;;;;;0.20;0.20;;;;;;;;;;10512418;28;20132;-73
2023/12/25 05:05:53;;;;;;;1.55;0.35;;;;;;;;;;10516467;28;20051;-75
2023/12/25 05:10:55;;;;;;;0.30;0.20;;;;;;;;;;10515245;28;20122;-74
2023/12/25 05:16:00;;;;;;;0.15;0.15;;;;;;;;;;10512736;28;20460;-75
2023/12/25 05:21:02;;;;;;;0.57;0.20;;;;;;;;;;10518154;28;20408;-75
2023/12/25 05:26:05;;;;;;;0.50;0.30;;;;;;;;;;10516675;28;20093;-74
2023/12/25 05:31:09;;;;;;;0.40;0.40;;;;;;;;;;10517734;28;20158;-75
2023/12/25 05:36:12;;;;;;;0.35;0.22;;;;;;;;;;10516084;28;20117;-75
2023/12/25 05:41:14;;;;;;;2.28;0.40;;;;;;;;;;10512744;28;20457;-75
2023/12/25 05:46:19;;;;;;;0.22;0.22;;;;;;;;;;10510189;28;20209;-75
2023/12/25 05:51:21;;;;;;;0.25;0.25;;;;;;;;;;10506757;28;20058;-74
2023/12/25 05:56:24;;;;;;;0.40;0.20;;;;;;;;;;10507786;28;20040;-74
2023/12/25 06:01:28;;;;;;;0.13;0.13;;;;;;;;;;10508051;28;20105;-74
2023/12/25 06:06:30;;;;;;;1.02;0.28;;;;;;;;;;10508513;28;20038;-74
2023/12/25 06:11:34;;;;;;;2.38;0.20;;;;;;;;;;10513694;28;20032;-74
2023/12/25 06:16:38;;;;;;;0.20;0.20;;;;;;;;;;10508344;28;20048;-74
2023/12/25 06:21:40;;;;;;;0.50;0.20;;;;;;;;;;10513563;28;20068;-75
2023/12/25 06:26:44;;;;;;;0.00;0.00;;;;;;;;;;10514307;28;20044;-75
2023/12/25 06:31:48;;;;;;;0.47;0.20;;;;;;;;;;10510591;28;20469;-76
2023/12/25 06:36:50;;;;;;;0.30;0.30;;;;;;;;;;10511871;28;20041;-76
2023/12/25 06:41:53;;;;;;;0.63;0.45;;;;;;;;;;10515701;28;20623;-76
2023/12/25 06:46:57;;;;;;;0.30;0.30;;;;;;;;;;10512064;28;20402;-74
2023/12/25 06:52:00;;;;;;;0.55;0.43;;;;;;;;;;10510415;28;20525;-73
2023/12/25 06:57:02;;;;;;;0.70;0.10;;;;;;;;;;10510133;28;20094;-74
2023/12/25 07:02:07;;;;;;;0.57;0.28;;;;;;;;;;10515628;28;20515;-74
2023/12/25 07:07:10;;;;;;;0.38;0.28;;;;;;;;;;10507687;28;20035;-74
2023/12/25 07:12:13;;;;;;;0.30;0.20;;;;;;;;;;10516859;28;20408;-74
2023/12/25 07:17:17;;;;;;;0.63;0.25;;;;;;;;;;10519545;28;20067;-73
2023/12/25 07:22:19;;;;;;;0.77;0.30;;;;;;;;;;10512216;28;20041;-74
2023/12/25 07:27:22;;;;;;;0.60;0.35;;;;;;;;;;10513490;28;20041;-74
2023/12/25 07:32:28;;;;;;;0.45;0.30;;;;;;;;;;10512999;28;20066;-75
2023/12/25 07:37:31;;;;;;;0.90;0.25;;;;;;;;;;10517587;28;20047;-75
2023/12/25 07:42:33;;;;;;;0.30;0.30;;;;;;;;;;10512369;28;20131;-75
2023/12/25 07:47:37;;;;;;;0.93;0.40;;;;;;;;;;10514392;28;20308;-75
2023/12/25 07:52:40;;;;;;;0.20;0.20;;;;;;;;;;10515264;28;20105;-75
2023/12/25 07:57:42;;;;;;;0.75;0.40;;;;;;;;;;10525397;28;20139;-75
2023/12/25 08:02:46;;;;;;;1.20;0.50;;;;;;;;;;10520718;28;21371;-75
2023/12/25 08:07:49;;;;;;;;;;;;;;;;;;10517420;28;20531;-75
2023/12/25 08:12:52;;;;;;;0.50;0.40;;;;;;;;;;10528097;28;19928;-75
2023/12/25 08:17:56;;;;;;;1.92;0.40;;;;;;;;;;10633293;27;20047;-75
2023/12/25 08:22:59;;;;;;;0.50;0.50;;;;;;;;;;10648457;27;20066;-74
2023/12/25 08:28:03;;;;;;;1.40;0.40;;;;;;;;;;10627727;27;20562;-74
2023/12/25 08:33:08;;;;;;;0.75;0.35;;;;;;;;;;10622215;27;20249;-75
2023/12/25 08:38:11;;;;;;;0.85;0.60;;;;;;;;;;10614406;27;20122;-75
2023/12/25 08:43:14;;;;;;;0.60;0.50;;;;;;;;;;10585730;27;20059;-74
2023/12/25 08:48:18;;;;;;;0.43;0.43;;;;;;;;;;10584088;27;20293;-74
2023/12/25 08:53:20;;;;;;;;;;;;;;;;;;10598608;27;20047;-74
2023/12/25 08:58:23;;;;;;;2.50;0.60;;;;;;;;;;10601841;27;19927;-74
2023/12/25 09:03:27;;;;;;;0.93;0.70;;;;;;;;;;10596949;27;20126;-75
2023/12/25 09:08:29;;;;;;;;;;;;;;;;;;10604300;27;20429;-75
2023/12/25 09:13:32;;;;;;;0.95;0.68;;;;;;;;;;10606252;27;19927;-73
2023/12/25 09:18:36;;;;;;;0.70;0.70;;;;;;;;;;10607260;27;20035;-75
2023/12/25 09:23:40;;;;;;;0.82;0.60;;;;;;;;;;10602302;27;20381;-75
2023/12/25 09:28:42;;;;;;;0.85;0.65;;;;;;;;;;10599452;27;20051;-76
2023/12/25 09:33:47;;;;;;;1.50;0.87;;;;;;;;;;10595815;27;20049;-74
2023/12/25 09:38:50;;;;;;;0.85;0.82;;;;;;;;;;10593126;27;20078;-73
2023/12/25 09:43:54;;;;;;;0.60;0.60;;;;;;;;;;10599942;27;20035;-75
2023/12/25 09:48:58;;;;;;;1.17;1.10;;;;;;;;;;10600060;27;20043;-76
2023/12/25 09:54:02;;;;;;;0.75;0.50;;;;;;;;;;10595608;27;20047;-76
2023/12/25 09:59:06;;;;;;;1.13;0.52;;;;;;;;;;10597240;27;20135;-76
2023/12/25 10:04:10;;;;;;;1.75;0.55;;;;;;;;;;10596862;27;20055;-75
2023/12/25 10:09:12;;;;;;;0.30;0.30;;;;;;;;;;10603317;27;20050;-76
2023/12/25 10:14:15;;;;;;;0.88;0.50;;;;;;;;;;10599923;27;20138;-75
2023/12/25 10:19:21;;;;;;;0.50;0.50;;;;;;;;;;10598368;27;20125;-76
2023/12/25 10:24:25;;;;;;;0.57;0.57;;;;;;;;;;10595737;27;20902;-76
2023/12/25 10:29:34;;;;;;;0.60;0.60;;;;;;;;;;10599798;27;20126;-76
2023/12/25 10:34:38;;;;;;;1.23;0.90;;;;;;;;;;10597542;27;20046;-76
2023/12/25 10:39:41;;;;;;;0.80;0.80;;;;;;;;;;10586478;27;20103;-75
2023/12/25 10:44:47;;;;;;;0.70;0.70;;;;;;;;;;10594406;27;20096;-75
2023/12/25 10:49:51;;;;;;;0.63;0.63;;;;;;;;;;10595241;27;20046;-76
2023/12/25 10:54:54;;;;;;;1.33;0.88;;;;;;;;;;10592577;27;20115;-75
2023/12/25 10:59:57;;;;;;;0.70;0.70;;;;;;;;;;10595379;27;20128;-75
2023/12/25 11:05:00;;;;;;;;;;;;;;;;;;10598006;27;20043;-76
2023/12/25 11:10:06;;;;;;;0.73;0.70;;;;;;;;;;10593974;27;19971;-76
2023/12/25 11:15:09;;;;;;;0.70;0.70;;;;;;;;;;10595272;27;20541;-74
2023/12/25 11:20:12;;;;;;;0.60;0.60;;;;;;;;;;10595011;27;20046;-75
2023/12/25 11:25:16;;;;;;;0.68;0.60;;;;;;;;;;10596772;27;20071;-75
2023/12/25 11:30:20;;;;;;;1.00;0.82;;;;;;;;;;10599073;27;20035;-74
2023/12/25 11:35:27;;;;;;;1.20;1.10;;;;;;;;;;10594946;27;20050;-74
2023/12/25 11:40:37;;;;;;;1.20;1.20;;;;;;;;;;10597339;27;20404;-75
2023/12/25 11:45:43;;;;;;;0.68;0.68;;;;;;;;;;10601953;27;20792;-75
2023/12/25 11:50:46;;;;;;;1.10;1.10;;;;;;;;;;10594245;27;21290;-75
2023/12/25 11:55:50;;;;;;;1.40;1.30;;;;;;;;;;10581467;27;20116;-76
2023/12/25 12:00:52;;;;;;;1.40;1.30;;;;;;;;;;10591114;27;20038;-75
2023/12/25 12:05:55;;;;;;;2.20;1.15;;;;;;;;;;10600624;27;20066;-74
2023/12/25 12:11:05;;;;;;;1.42;1.30;;;;;;;;;;10592763;27;20042;-74
2023/12/25 12:16:07;;;;;;;1.27;1.23;;;;;;;;;;10592312;27;20039;-75
2023/12/25 12:21:10;;;;;;;1.50;1.40;;;;;;;;;;10588654;27;20139;-75
2023/12/25 12:26:15;;;;;;;1.45;1.30;;;;;;;;;;10597883;27;20043;-74
2023/12/25 12:31:18;;;;;;;1.50;1.40;;;;;;;;;;10587558;27;20058;-74
2023/12/25 12:36:20;;;;;;;1.30;1.20;;;;;;;;;;10605203;27;20039;-76
2023/12/25 12:41:24;;;;;;;1.25;1.20;;;;;;;;;;10602940;27;20036;-75
2023/12/25 12:46:28;;;;;;;1.40;1.30;;;;;;;;;;10596268;27;20388;-75
2023/12/25 12:51:30;;;;;;;;;;;;;;;;;;10594949;27;20676;-75
2023/12/25 12:56:34;;;;;;;1.08;1.08;;;;;;;;;;10594334;27;20264;-76
2023/12/25 13:01:37;;;;;;;1.02;1.02;;;;;;;;;;10599603;27;20066;-76
2023/12/25 13:06:39;;;;;;;0.90;0.90;;;;;;;;;;10585617;27;20086;-77
2023/12/25 13:11:45;;;;;;;0.90;0.90;;;;;;;;;;10598417;27;20039;-75
2023/12/25 13:16:48;;;;;;;2.38;1.00;;;;;;;;;;10604714;27;20051;-75
2023/12/25 13:21:51;;;;;;;0.90;0.90;;;;;;;;;;10592961;27;20035;-73
2023/12/25 13:26:55;;;;;;;1.07;1.07;;;;;;;;;;10599150;27;20243;-76
2023/12/25 13:31:57;;;;;;;0.60;0.60;;;;;;;;;;10578305;27;20138;-77
2023/12/25 13:37:00;;;;;;;0.90;0.40;;;;;;;;;;10601015;27;20071;-74
2023/12/25 13:42:04;;;;;;;0.73;0.53;;;;;;;;;;10598632;27;20053;-75
2023/12/25 13:47:06;;;;;;;0.40;0.40;;;;;;;;;;10590968;27;20608;-75
2023/12/25 13:52:09;;;;;;;0.38;0.38;;;;;;;;;;10597149;27;20039;-73
2023/12/25 13:57:13;;;;;;;0.65;0.32;;;;;;;;;;10599680;27;20705;-74
2023/12/25 14:02:16;;;;;;;0.75;0.50;;;;;;;;;;10602146;27;20039;-75
2023/12/25 14:07:19;;;;;;;0.40;0.20;;;;;;;;;;10599249;27;20038;-75
2023/12/25 14:12:23;;;;;;;0.57;0.40;;;;;;;;;;10601884;27;20121;-74
2023/12/25 14:17:25;;;;;;;0.35;0.20;;;;;;;;;;10594495;27;20145;-75
2023/12/25 14:22:28;;;;;;;0.57;0.50;;;;;;;;;;10594596;27;20075;-72
2023/12/25 14:27:33;;;;;;;0.60;0.60;;;;;;;;;;10586077;27;20038;-73
2023/12/25 14:32:36;;;;;;;0.57;0.30;;;;;;;;;;10601952;27;20027;-74
2023/12/25 14:37:39;;;;;;;0.73;0.50;;;;;;;;;;10618106;27;20097;-75
2023/12/25 14:42:44;;;;;;;0.47;0.40;;;;;;;;;;10611005;27;20042;-75
2023/12/25 14:47:46;;;;;;;0.65;0.40;;;;;;;;;;10607977;27;20082;-75
2023/12/25 14:52:49;;;;;;;1.00;0.50;;;;;;;;;;10598783;27;20031;-75
2023/12/25 14:57:53;;;;;;;0.30;0.30;;;;;;;;;;10590334;27;20062;-74
2023/12/25 15:03:02;;;;;;;1.15;0.50;;;;;;;;;;10589463;27;20142;-75
2023/12/25 15:08:06;;;;;;;0.20;0.20;;;;;;;;;;10591409;27;20070;-75
2023/12/25 15:13:10;;;;;;;0.40;0.40;;;;;;;;;;10597479;27;20047;-76
2023/12/25 15:18:12;;;;;;;0.35;0.30;;;;;;;;;;10600748;27;20412;-75
2023/12/25 15:23:16;;;;;;;0.47;0.30;;;;;;;;;;10599158;27;20051;-74
2023/12/25 15:28:20;;;;;;;0.65;0.57;;;;;;;;;;10600458;27;20040;-74
2023/12/25 15:33:22;;;;;;;;;;;;;;;;;;10599951;27;20054;-75
2023/12/25 15:38:26;;;;;;;0.35;0.30;;;;;;;;;;10600595;27;19951;-74
2023/12/25 15:43:30;;;;;;;;;;;;;;;;;;10601025;27;20642;-75
2023/12/25 15:48:36;;;;;;;1.77;0.73;;;;;;;;;;10596701;27;19924;-74
2023/12/25 15:53:39;;;;;;;0.85;0.63;;;;;;;;;;10596663;27;20126;-74
2023/12/25 15:58:41;;;;;;;0.52;0.30;;;;;;;;;;10606134;27;20152;-75
2023/12/25 16:03:45;;;;;;;1.17;0.73;;;;;;;;;;10608653;27;20118;-74
2023/12/25 16:08:50;;;;;;;0.75;0.57;;;;;;;;;;10603062;27;20031;-74
2023/12/25 16:13:52;;;;;;;0.82;0.60;;;;;;;;;;10599959;27;20071;-75
2023/12/25 16:18:56;;;;;;;0.38;0.32;;;;;;;;;;10600369;27;20174;-75
2023/12/25 16:23:59;;;;;;;1.23;0.57;;;;;;;;;;10605484;27;20138;-75
2023/12/25 16:29:04;;;;;;;0.40;0.40;;;;;;;;;;10602635;27;20549;-75
2023/12/25 16:34:08;;;;;;;0.68;0.40;;;;;;;;;;10607371;27;20714;-74
2023/12/25 16:39:11;;;;;;;;;;;;;;;;;;10604865;27;20101;-76
2023/12/25 16:44:13;;;;;;;0.60;0.32;;;;;;;;;;10603743;27;19920;-74
2023/12/25 16:49:18;;;;;;;0.88;0.68;;;;;;;;;;10606442;27;20074;-75
2023/12/25 16:54:21;;;;;;;0.47;0.20;;;;;;;;;;10605321;27;20096;-75
2023/12/25 16:59:23;;;;;;;1.25;0.35;;;;;;;;;;10598750;27;20073;-74
2023/12/25 17:04:27;;;;;;;1.13;0.52;;;;;;;;;;10605101;27;20046;-74
2023/12/25 17:09:30;;;;;;;0.75;0.50;;;;;;;;;;10607725;27;20114;-74
2023/12/25 17:14:36;;;;;;;1.35;0.80;;;;;;;;;;10607940;27;20035;-74
2023/12/25 17:19:40;;;;;;;1.38;0.65;;;;;;;;;;10592443;27;20052;-75
2023/12/25 17:24:43;;;;;;;2.08;0.80;;;;;;;;;;10603214;27;20051;-76
2023/12/25 17:29:46;;;;;;;0.40;0.40;;;;;;;;;;10603607;27;20079;-75
2023/12/25 17:34:50;;;;;;;1.08;0.65;;;;;;;;;;10597420;27;20461;-75
2023/12/25 17:39:54;;;;;;;0.60;0.50;;;;;;;;;;10599636;27;20043;-75
2023/12/25 17:44:57;;;;;;;1.35;0.90;;;;;;;;;;10601793;27;20047;-75
2023/12/25 17:50:02;;;;;;;0.93;0.65;;;;;;;;;;10604831;27;20036;-75
2023/12/25 17:55:05;;;;;;;1.13;0.80;;;;;;;;;;10599075;27;20738;-76
2023/12/25 18:00:09;;;;;;;2.35;1.00;;;;;;;;;;10599115;27;20070;-75
2023/12/25 18:05:14;;;;;;;1.98;0.95;;;;;;;;;;10603054;27;21641;-75
2023/12/25 18:10:17;;;;;;;0.65;0.60;;;;;;;;;;10593813;27;20051;-75
2023/12/25 18:15:20;;;;;;;1.65;1.13;;;;;;;;;;10597328;27;20066;-75
2023/12/25 18:20:24;;;;;;;0.80;0.60;;;;;;;;;;10595903;27;20097;-75
2023/12/25 18:25:27;;;;;;;0.63;0.60;;;;;;;;;;10580718;27;20027;-76
2023/12/25 18:30:29;;;;;;;0.70;0.55;;;;;;;;;;10597743;27;20122;-76
2023/12/25 18:35:33;;;;;;;0.90;0.55;;;;;;;;;;10593701;27;20039;-73
2023/12/25 18:40:36;;;;;;;1.45;0.90;;;;;;;;;;10596541;27;20092;-74
2023/12/25 18:45:39;;;;;;;1.92;1.00;;;;;;;;;;10594056;27;20043;-74
2023/12/25 18:50:43;;;;;;;0.85;0.75;;;;;;;;;;10598557;27;20100;-73
2023/12/25 18:55:46;;;;;;;2.47;0.77;;;;;;;;;;10600103;27;20040;-75
2023/12/25 19:00:49;;;;;;;1.63;0.82;;;;;;;;;;10586586;27;20063;-75
2023/12/25 19:05:53;;;;;;;1.00;0.70;;;;;;;;;;10592565;27;20069;-75
2023/12/25 19:10:56;;;;;;;1.25;0.73;;;;;;;;;;10596894;27;20429;-74
2023/12/25 19:15:59;;;;;;;1.35;0.60;;;;;;;;;;10585815;27;20133;-74
2023/12/25 19:21:02;;;;;;;0.85;0.80;;;;;;;;;;10596209;27;20429;-75
2023/12/25 19:26:05;;;;;;;1.38;0.80;;;;;;;;;;10593638;27;20066;-75
2023/12/25 19:31:09;;;;;;;2.63;1.00;;;;;;;;;;10594777;27;20057;-75
2023/12/25 19:36:13;;;;;;;1.60;0.80;;;;;;;;;;10594957;27;20512;-75
2023/12/25 19:41:16;;;;;;;0.52;0.50;;;;;;;;;;10595473;27;20066;-75
2023/12/25 19:46:18;;;;;;;2.92;0.57;;;;;;;;;;10593238;27;20118;-75
2023/12/25 19:51:23;;;;;;;1.60;0.52;;;;;;;;;;10595002;27;20063;-75
2023/12/25 19:56:26;;;;;;;2.65;0.85;;;;;;;;;;10601455;27;20043;-76
2023/12/25 20:01:29;;;;;;;1.77;0.80;;;;;;;;;;10599510;27;20047;-75
2023/12/25 20:06:33;;;;;;;1.25;0.45;;;;;;;;;;10596841;27;20356;-75
2023/12/25 20:11:36;;;;;;;2.30;1.00;;;;;;;;;;10595718;27;20071;-75
2023/12/25 20:16:41;;;;;;;1.10;0.43;;;;;;;;;;10606337;27;20089;-77
2023/12/25 20:21:45;;;;;;;1.75;0.80;;;;;;;;;;10598144;27;20218;-76
2023/12/25 20:26:47;;;;;;;;;;;;;;;;;;10596941;27;20028;-75
2023/12/25 20:31:53;;;;;;;1.65;0.90;;;;;;;;;;10582207;27;19919;-75
2023/12/25 20:37:14;;;;;;;2.70;1.17;;;;;;;;;;10597648;27;20035;-72
2023/12/25 20:42:18;;;;;;;2.97;1.30;;;;;;;;;;10607554;27;20035;-75
2023/12/25 20:47:20;;;;;;;1.15;0.75;;;;;;;;;;10629619;27;20043;-75
2023/12/25 20:52:24;;;;;;;1.55;0.70;;;;;;;;;;10616389;27;20042;-76
2023/12/25 20:57:28;;;;;;;1.13;0.50;;;;;;;;;;10606335;27;20114;-75
2023/12/25 21:02:32;;;;;;;2.67;0.90;;;;;;;;;;10610452;27;20039;-76
2023/12/25 21:07:36;;;;;;;2.03;1.02;;;;;;;;;;10588798;27;20039;-76
2023/12/25 21:12:39;;;;;;;1.38;0.93;;;;;;;;;;10602253;27;20047;-74
2023/12/25 21:17:42;;;;;;;3.97;0.97;;;;;;;;;;10597062;27;20039;-74
2023/12/25 21:22:46;;;;;;;0.80;0.45;;;;;;;;;;10598401;27;20039;-74
2023/12/25 21:27:49;;;;;;;2.67;0.93;;;;;;;;;;10600402;27;20134;-75
2023/12/25 21:32:51;;;;;;;2.35;1.02;;;;;;;;;;10604990;27;20062;-75
2023/12/25 21:37:56;;;;;;;1.60;0.90;;;;;;;;;;10599707;27;20126;-75
2023/12/25 21:43:00;;;;;;;1.95;0.85;;;;;;;;;;10601727;27;20122;-75
2023/12/25 21:48:03;;;;;;;0.70;0.60;;;;;;;;;;10594998;27;20280;-74
2023/12/25 21:53:07;;;;;;;1.42;0.70;;;;;;;;;;10600885;27;20026;-75
2023/12/25 21:58:10;;;;;;;1.58;0.80;;;;;;;;;;10603566;27;20051;-74
2023/12/25 22:03:13;;;;;;;1.00;0.60;;;;;;;;;;10598548;27;20092;-74
2023/12/25 22:08:17;;;;;;;3.30;1.10;;;;;;;;;;10593950;27;20468;-75
2023/12/25 22:13:19;;;;;;;1.67;0.88;;;;;;;;;;10600897;27;20041;-75
2023/12/25 22:18:22;;;;;;;2.67;1.23;;;;;;;;;;10602193;27;20049;-74
2023/12/25 22:23:28;;;;;;;4.35;1.25;;;;;;;;;;10597881;27;20068;-75
2023/12/25 22:28:31;;;;;;;1.88;1.10;;;;;;;;;;10600233;27;20086;-74
2023/12/25 22:33:33;;;;;;;1.55;0.90;;;;;;;;;;10599772;27;20122;-75
2023/12/25 22:38:37;;;;;;;2.92;1.00;;;;;;;;;;10593856;27;20562;-76
2023/12/25 22:43:40;;;;;;;2.90;1.25;;;;;;;;;;10595047;27;20548;-76
2023/12/25 22:48:43;;;;;;;1.92;1.08;;;;;;;;;;10589638;27;20114;-75
2023/12/25 22:53:47;;;;;;;3.92;1.27;;;;;;;;;;10599820;27;20035;-76
2023/12/25 22:58:50;;;;;;;3.40;1.20;;;;;;;;;;10598235;27;20042;-75
2023/12/25 23:03:52;;;;;;;2.22;1.00;;;;;;;;;;10585948;27;20444;-75
2023/12/25 23:08:56;;;;;;;1.60;0.70;;;;;;;;;;10594708;27;20372;-74
2023/12/25 23:13:59;;;;;;;0.93;0.57;;;;;;;;;;10596819;27;20158;-75
2023/12/25 23:19:02;;;;;;;1.88;1.00;;;;;;;;;;10586707;27;20058;-74
2023/12/25 23:24:06;;;;;;;2.33;1.10;;;;;;;;;;10579733;27;20539;-75
2023/12/25 23:29:09;;;;;;;3.15;1.20;;;;;;;;;;10596486;27;20078;-75
2023/12/25 23:34:11;;;;;;;3.33;1.00;;;;;;;;;;10594327;27;20129;-75
2023/12/25 23:39:16;;;;;;;4.13;1.13;;;;;;;;;;10591633;27;20042;-75
2023/12/25 23:44:20;;;;;;;2.35;1.17;;;;;;;;;;10593978;27;20035;-74
2023/12/25 23:49:23;;;;;;;3.25;1.35;;;;;;;;;;10593224;27;20039;-74
2023/12/25 23:54:27;;;;;;;1.52;0.60;;;;;;;;;;10592007;27;20128;-75
2023/12/25 23:59:29;;;;;;;1.70;1.00;;;;;;;;;;10598025;27;20046;-74
